CheckWX is a tool to help pilots better visualize weather data.  It is not intended as a substitute for an official pre-flight weather briefing.

15:05:38 UTC

4R5 METAR
Major Gilbert Field Airport
La Pointe, Wisconsin, USA
Current

11 mins ago

K4R5 211455Z AUTO 07005KT 10SM OVC022 19/14 A3008 RMK AO2 T01860143
Observed
Jul-21 @ 14:55 UTC
Wind
  • 070° at 5 KTS
Visibility
10 SM
Flight Rules
MVFR
Cloud Levels
  • Overcast at 2,200' AGL
Temperature
19°C / 66°F
Dewpoint
14°C / 57°F
Humidity
73%
Altimeter
30.08" Hg
Pressure
1018.62 hPa
Previous

31 mins ago

K4R5 211435Z AUTO 09005KT 10SM OVC018 19/14 A3007 RMK AO2 T01860142
Observed
Jul-21 @ 14:35 UTC
Wind
  • 090° at 5 KTS
Visibility
10 SM
Flight Rules
MVFR
Cloud Levels
  • Overcast at 1,800' AGL
Temperature
19°C / 66°F
Dewpoint
14°C / 57°F
Humidity
73%
Altimeter
30.07" Hg
Pressure
1018.32 hPa
Previous

51 mins ago

K4R5 211415Z AUTO 02006KT 10SM OVC018 19/15 A3007 RMK AO2 T01910147
Observed
Jul-21 @ 14:15 UTC
Wind
  • 020° at 6 KTS
Visibility
10 SM
Flight Rules
MVFR
Cloud Levels
  • Overcast at 1,800' AGL
Temperature
19°C / 66°F
Dewpoint
15°C / 59°F
Humidity
78%
Altimeter
30.07" Hg
Pressure
1018.32 hPa